createdAt,value
2018-11-04T00:00:52.449Z,101550.25
2018-11-04T00:03:21.693Z,101549.30
2018-11-04T00:05:50.662Z,101547.53
2018-11-04T00:08:19.170Z,101542.44
2018-11-04T00:10:47.706Z,101536.13
2018-11-04T00:13:16.302Z,101536.44
2018-11-04T00:15:44.836Z,101524.45
2018-11-04T00:18:13.434Z,101524.92
2018-11-04T00:20:41.954Z,101526.22
2018-11-04T00:23:10.482Z,101521.27
2018-11-04T00:25:39.064Z,101520.95
2018-11-04T00:28:07.675Z,101525.09
2018-11-04T00:30:36.202Z,101518.58
2018-11-04T00:33:05.033Z,101518.20
2018-11-04T00:35:33.577Z,101505.93
2018-11-04T00:38:02.043Z,101499.65
2018-11-04T00:40:30.546Z,101498.00
2018-11-04T00:42:59.101Z,101494.84
2018-11-04T00:45:27.827Z,101489.13
2018-11-04T00:47:56.362Z,101482.47
2018-11-04T00:50:24.886Z,101487.33
2018-11-04T00:52:53.393Z,101486.98
2018-11-04T00:55:21.902Z,101485.11
2018-11-04T00:57:50.386Z,101480.51
2018-11-04T01:00:19.802Z,101473.08
2018-11-04T01:02:49.611Z,101473.50
2018-11-04T01:05:18.537Z,101464.05
2018-11-04T01:07:47.123Z,101466.50
2018-11-04T01:10:15.701Z,101458.42
2018-11-04T01:12:44.783Z,101465.81
2018-11-04T01:15:14.152Z,101464.06
2018-11-04T01:17:43.203Z,101466.09
2018-11-04T01:20:13.516Z,101462.98
2018-11-04T01:22:42.085Z,101462.60
2018-11-04T01:25:10.697Z,101461.98
2018-11-04T01:27:39.397Z,101461.30
2018-11-04T01:30:10.223Z,101448.86
2018-11-04T01:32:38.780Z,101452.16
2018-11-04T01:35:08.725Z,101443.45
2018-11-04T01:37:37.441Z,101439.17
2018-11-04T01:40:06.917Z,101442.31
2018-11-04T01:42:35.439Z,101439.75
2018-11-04T01:45:04.192Z,101431.09
2018-11-04T01:47:32.697Z,101430.14
2018-11-04T01:50:01.171Z,101426.97
2018-11-04T01:52:29.714Z,101421.52
2018-11-04T01:54:58.201Z,101413.60
2018-11-04T01:57:26.686Z,101413.45
2018-11-04T01:59:55.219Z,101419.50
2018-11-04T02:02:23.685Z,101419.11
2018-11-04T02:04:52.206Z,101409.39
2018-11-04T02:07:20.702Z,101406.98
2018-11-04T02:09:49.243Z,101404.04
2018-11-04T02:12:17.855Z,101403.73
2018-11-04T02:14:46.366Z,101401.66
2018-11-04T02:17:14.926Z,101390.99
2018-11-04T02:19:43.528Z,101394.24
2018-11-04T02:22:12.022Z,101390.42
2018-11-04T02:24:40.526Z,101380.97
2018-11-04T02:27:09.043Z,101370.91
2018-11-04T02:29:37.628Z,101372.31
2018-11-04T02:32:06.590Z,101370.30
2018-11-04T02:34:35.117Z,101363.14
2018-11-04T02:37:03.632Z,101366.73
2018-11-04T02:39:32.118Z,101364.94
2018-11-04T02:42:00.700Z,101359.50
2018-11-04T02:44:29.181Z,101349.66
2018-11-04T02:46:57.784Z,101357.73
2018-11-04T02:49:26.262Z,101355.23
2018-11-04T02:51:54.766Z,101352.05
2018-11-04T02:54:23.249Z,101353.46
2018-11-04T02:56:51.729Z,101349.91
2018-11-04T02:59:20.292Z,101345.39
2018-11-04T03:01:48.823Z,101343.52
2018-11-04T03:04:17.362Z,101339.71
2018-11-04T03:06:45.863Z,101338.27
2018-11-04T03:09:14.459Z,101327.89
2018-11-04T03:11:42.982Z,101319.81
2018-11-04T03:14:11.490Z,101319.21
2018-11-04T03:16:39.973Z,101314.20
2018-11-04T03:19:08.520Z,101309.70
2018-11-04T03:21:37.059Z,101309.20
2018-11-04T03:24:05.671Z,101310.84
2018-11-04T03:26:34.203Z,101309.66
2018-11-04T03:29:02.718Z,101307.81
2018-11-04T03:31:31.342Z,101307.01
2018-11-04T03:33:59.829Z,101306.22
2018-11-04T03:36:28.331Z,101294.12
2018-11-04T03:38:56.886Z,101300.59
2018-11-04T03:41:25.381Z,101299.48
2018-11-04T03:43:53.930Z,101301.43
2018-11-04T03:46:22.522Z,101299.46
2018-11-04T03:48:51.027Z,101302.96
2018-11-04T03:51:19.554Z,101302.21
2018-11-04T03:53:48.054Z,101298.11
2018-11-04T03:56:16.634Z,101295.88
2018-11-04T03:58:45.165Z,101290.13
2018-11-04T04:01:13.657Z,101283.25
2018-11-04T04:03:42.190Z,101281.02
2018-11-04T04:06:10.721Z,101277.74
2018-11-04T04:08:39.307Z,101278.62
2018-11-04T04:11:07.798Z,101283.45
2018-11-04T04:13:36.277Z,101276.50
2018-11-04T04:16:04.909Z,101269.05
2018-11-04T04:18:33.370Z,101279.31
2018-11-04T04:21:06.182Z,101270.69
2018-11-04T04:23:34.658Z,101277.44
2018-11-04T04:26:03.403Z,101276.92
2018-11-04T04:28:32.118Z,101277.64
2018-11-04T04:31:00.693Z,101271.39
2018-11-04T04:33:29.343Z,101269.05
2018-11-04T04:35:57.897Z,101270.77
2018-11-04T04:38:26.609Z,101280.96
2018-11-04T04:40:55.093Z,101274.69
2018-11-04T04:43:23.763Z,101273.75
2018-11-04T04:45:52.933Z,101271.48
2018-11-04T04:48:21.625Z,101267.74
2018-11-04T04:50:50.158Z,101263.70
2018-11-04T04:53:18.705Z,101266.42
2018-11-04T04:55:47.354Z,101262.40
2018-11-04T04:58:15.814Z,101251.34
2018-11-04T05:00:44.381Z,101257.63
2018-11-04T05:03:12.867Z,101257.27
2018-11-04T05:05:41.467Z,101252.77
2018-11-04T05:08:09.934Z,101253.39
2018-11-04T05:10:38.479Z,101250.86
2018-11-04T05:13:06.945Z,101254.07
2018-11-04T05:15:35.567Z,101257.95
2018-11-04T05:18:04.109Z,101254.02
2018-11-04T05:20:32.637Z,101262.75
2018-11-04T05:23:01.201Z,101268.50
2018-11-04T05:25:29.700Z,101258.07
2018-11-04T05:27:58.206Z,101262.81
2018-11-04T05:30:26.790Z,101253.39
2018-11-04T05:32:55.275Z,101249.05
2018-11-04T05:35:23.773Z,101250.53
2018-11-04T05:37:52.277Z,101251.60
2018-11-04T05:40:20.838Z,101251.67
2018-11-04T05:42:49.368Z,101248.68
2018-11-04T05:45:17.846Z,101248.36
2018-11-04T05:47:46.344Z,101253.53
2018-11-04T05:50:14.837Z,101247.17
2018-11-04T05:52:43.378Z,101243.05
2018-11-04T05:55:11.878Z,101241.41
2018-11-04T05:57:40.453Z,101239.72
2018-11-04T06:00:09.860Z,101242.61
2018-11-04T06:02:38.382Z,101237.64
2018-11-04T06:05:07.788Z,101239.90
2018-11-04T06:07:37.349Z,101231.40
2018-11-04T06:10:06.497Z,101230.92
2018-11-04T06:12:35.205Z,101228.78
2018-11-04T06:15:03.765Z,101231.14
2018-11-04T06:17:32.243Z,101227.84
2018-11-04T06:20:00.792Z,101222.53
2018-11-04T06:22:29.439Z,101234.95
2018-11-04T06:24:58.002Z,101230.34
2018-11-04T06:27:26.506Z,101224.67
2018-11-04T06:29:55.065Z,101216.63
2018-11-04T06:32:23.613Z,101221.00
2018-11-04T06:34:52.118Z,101223.03
2018-11-04T06:37:20.634Z,101219.83
2018-11-04T06:39:49.115Z,101218.40
2018-11-04T06:42:17.693Z,101224.67
2018-11-04T06:44:46.182Z,101227.05
2018-11-04T06:47:14.785Z,101228.81
2018-11-04T06:49:43.245Z,101229.78
2018-11-04T06:52:11.773Z,101232.00
2018-11-04T06:54:40.285Z,101227.89
2018-11-04T06:57:08.785Z,101227.77
2018-11-04T06:59:37.371Z,101226.94
2018-11-04T07:02:05.886Z,101223.84
2018-11-04T07:04:34.428Z,101217.11
2018-11-04T07:07:02.914Z,101217.68
2018-11-04T07:09:31.490Z,101212.00
2018-11-04T07:12:00.027Z,101211.41
2018-11-04T07:14:28.590Z,101202.88
2018-11-04T07:16:57.103Z,101207.26
2018-11-04T07:19:25.667Z,101202.13
2018-11-04T07:21:54.141Z,101207.47
2018-11-04T07:24:22.668Z,101206.76
2018-11-04T07:26:51.218Z,101211.58
2018-11-04T07:29:19.738Z,101220.31
2018-11-04T07:31:48.249Z,101208.90
2018-11-04T07:34:16.780Z,101213.97
2018-11-04T07:36:45.369Z,101211.18
2018-11-04T07:39:14.194Z,101216.63
2018-11-04T07:41:42.733Z,101213.42
2018-11-04T07:44:11.324Z,101214.02
2018-11-04T07:46:39.721Z,101217.06
2018-11-04T07:49:08.273Z,101205.65
2018-11-04T07:51:36.874Z,101210.14
2018-11-04T07:54:05.626Z,101215.36
2018-11-04T07:56:34.149Z,101212.28
2018-11-04T07:59:02.649Z,101204.77
2018-11-04T08:01:31.177Z,101217.70
2018-11-04T08:03:59.739Z,101209.74
2018-11-04T08:06:28.214Z,101205.47
2018-11-04T08:08:56.729Z,101212.78
2018-11-04T08:11:25.270Z,101205.84
2018-11-04T08:13:53.847Z,101203.45
2018-11-04T08:16:22.376Z,101194.41
2018-11-04T08:18:50.932Z,101191.73
2018-11-04T08:21:19.568Z,101188.09
2018-11-04T08:23:48.018Z,101191.13
2018-11-04T08:26:16.599Z,101187.12
2018-11-04T08:28:45.123Z,101190.06
2018-11-04T08:31:13.653Z,101194.10
2018-11-04T08:33:42.357Z,101185.97
2018-11-04T08:36:10.971Z,101191.91
2018-11-04T08:38:39.456Z,101178.42
2018-11-04T08:41:08.082Z,101178.64
2018-11-04T08:43:36.657Z,101178.84
2018-11-04T08:46:05.322Z,101170.34
2018-11-04T08:48:33.946Z,101174.77
2018-11-04T08:51:02.436Z,101172.05
2018-11-04T08:53:31.029Z,101171.84
2018-11-04T08:55:59.580Z,101171.44
2018-11-04T08:58:28.163Z,101168.19
2018-11-04T09:00:56.846Z,101172.58
2018-11-04T09:03:25.417Z,101164.59
2018-11-04T09:05:53.927Z,101162.13
2018-11-04T09:08:22.453Z,101168.38
2018-11-04T09:10:51.098Z,101157.19
2018-11-04T09:13:19.580Z,101152.42
2018-11-04T09:15:48.137Z,101155.98
2018-11-04T09:18:16.678Z,101156.63
2018-11-04T09:20:45.224Z,101147.45
2018-11-04T09:23:13.768Z,101159.91
2018-11-04T09:25:42.289Z,101148.27
2018-11-04T09:28:10.819Z,101148.52
2018-11-04T09:30:39.334Z,101142.30
2018-11-04T09:33:07.891Z,101140.52
2018-11-04T09:35:36.538Z,101142.80
2018-11-04T09:38:04.946Z,101140.14
2018-11-04T09:40:33.449Z,101151.16
2018-11-04T09:43:02.060Z,101138.59
2018-11-04T09:45:30.567Z,101146.10
2018-11-04T09:47:59.106Z,101140.09
2018-11-04T09:50:27.631Z,101143.88
2018-11-04T09:52:56.145Z,101146.52
2018-11-04T09:55:24.669Z,101145.48
2018-11-04T09:57:53.253Z,101138.05
2018-11-04T10:00:21.737Z,101139.67
2018-11-04T10:02:50.294Z,101140.30
2018-11-04T10:05:18.789Z,101137.45
2018-11-04T10:07:47.297Z,101130.48
2018-11-04T10:10:15.910Z,101127.41
2018-11-04T10:12:44.990Z,101131.33
2018-11-04T10:15:13.511Z,101122.69
2018-11-04T10:17:42.410Z,101123.67
2018-11-04T10:20:12.037Z,101122.36
2018-11-04T10:22:41.072Z,101122.33
2018-11-04T10:25:10.988Z,101123.45
2018-11-04T10:27:40.000Z,101106.50
2018-11-04T10:30:10.646Z,101110.30
2018-11-04T10:32:39.198Z,101107.14
2018-11-04T10:35:09.061Z,101101.43
2018-11-04T10:37:38.089Z,101097.45
2018-11-04T10:40:07.542Z,101092.25
2018-11-04T10:42:36.074Z,101085.16
2018-11-04T10:45:05.098Z,101086.80
2018-11-04T10:47:33.665Z,101083.09
2018-11-04T10:50:02.281Z,101075.05
2018-11-04T10:52:30.834Z,101067.48
2018-11-04T10:54:59.405Z,101065.53
2018-11-04T10:57:28.140Z,101060.27
2018-11-04T10:59:56.662Z,101056.98
2018-11-04T11:02:25.215Z,101047.23
2018-11-04T11:04:53.782Z,101050.84
2018-11-04T11:07:22.308Z,101049.55
2018-11-04T11:09:50.897Z,101051.68
2018-11-04T11:12:19.544Z,101045.05
2018-11-04T11:14:48.132Z,101046.13
2018-11-04T11:17:16.721Z,101044.98
2018-11-04T11:19:45.254Z,101046.40
2018-11-04T11:22:13.920Z,101040.54
2018-11-04T11:24:42.460Z,101041.98
2018-11-04T11:27:11.025Z,101037.36
2018-11-04T11:29:39.534Z,101039.31
2018-11-04T11:32:08.111Z,101034.70
2018-11-04T11:34:36.666Z,101030.63
2018-11-04T11:37:35.724Z,101023.56
2018-11-04T11:40:04.256Z,101010.45
2018-11-04T11:42:32.830Z,101005.97
2018-11-04T11:45:01.605Z,100995.93
2018-11-04T11:47:30.226Z,100999.78
2018-11-04T11:49:58.786Z,100997.86
2018-11-04T11:52:27.364Z,100990.97
2018-11-04T11:54:56.121Z,100996.78
2018-11-04T11:57:24.650Z,100983.22
2018-11-04T11:59:53.174Z,100984.78
2018-11-04T12:02:21.738Z,100984.59
2018-11-04T12:04:50.249Z,100979.42
2018-11-04T12:07:18.763Z,100975.70
2018-11-04T12:09:47.317Z,100977.44
2018-11-04T12:12:15.827Z,100977.22
2018-11-04T12:14:44.425Z,100962.17
2018-11-04T12:17:12.890Z,100958.10
2018-11-04T12:19:41.385Z,100959.36
2018-11-04T12:22:09.983Z,100945.81
2018-11-04T12:24:38.484Z,100947.34
2018-11-04T12:27:07.016Z,100938.13
2018-11-04T12:29:35.553Z,100936.43
2018-11-04T12:32:04.092Z,100940.30
2018-11-04T12:34:32.622Z,100939.47
2018-11-04T12:37:01.291Z,100931.91
2018-11-04T12:39:29.783Z,100923.23
2018-11-04T12:41:58.319Z,100925.04
2018-11-04T12:44:26.841Z,100926.42
2018-11-04T12:46:55.330Z,100925.36
2018-11-04T12:49:23.842Z,100919.98
2018-11-04T12:51:52.376Z,100921.30
2018-11-04T12:54:20.902Z,100914.20
2018-11-04T12:56:49.452Z,100912.64
2018-11-04T12:59:18.041Z,100908.74
2018-11-04T13:01:46.550Z,100909.48
2018-11-04T13:04:15.237Z,100904.88
2018-11-04T13:06:43.801Z,100899.32
2018-11-04T13:09:12.625Z,100897.17
2018-11-04T13:11:41.155Z,100899.62
2018-11-04T13:14:10.178Z,100883.22
2018-11-04T13:16:38.680Z,100884.54
2018-11-04T13:19:07.193Z,100884.05
2018-11-04T13:21:36.118Z,100883.02
2018-11-04T13:24:04.874Z,100873.20
2018-11-04T13:26:33.526Z,100873.03
2018-11-04T13:29:02.130Z,100876.51
2018-11-04T13:31:30.698Z,100876.33
2018-11-04T13:33:59.239Z,100874.88
2018-11-04T13:36:27.878Z,100875.45
2018-11-04T13:38:56.377Z,100867.11
2018-11-04T13:41:24.837Z,100870.74
2018-11-04T13:43:53.501Z,100868.41
2018-11-04T13:46:22.170Z,100874.00
2018-11-04T13:48:50.714Z,100869.77
2018-11-04T13:51:19.309Z,100866.96
2018-11-04T13:53:47.858Z,100867.74
2018-11-04T13:56:16.423Z,100866.23
2018-11-04T13:58:44.986Z,100870.50
2018-11-04T14:01:13.478Z,100874.70
2018-11-04T14:03:42.042Z,100868.78
2018-11-04T14:06:10.591Z,100872.02
2018-11-04T14:08:39.074Z,100873.69
2018-11-04T14:11:07.624Z,100870.41
2018-11-04T14:13:36.216Z,100862.70
2018-11-04T14:16:05.134Z,100858.55
2018-11-04T14:18:33.764Z,100853.14
2018-11-04T14:21:02.605Z,100844.16
2018-11-04T14:23:31.291Z,100845.38
2018-11-04T14:25:59.880Z,100848.12
2018-11-04T14:28:28.381Z,100843.60
2018-11-04T14:30:56.966Z,100844.13
2018-11-04T14:33:25.618Z,100837.78
2018-11-04T14:35:54.134Z,100842.28
2018-11-04T14:38:22.895Z,100842.84
2018-11-04T14:40:51.385Z,100831.57
2018-11-04T14:43:20.526Z,100837.09
2018-11-04T14:45:49.027Z,100829.67
2018-11-04T14:48:17.577Z,100832.16
2018-11-04T14:50:46.062Z,100823.36
2018-11-04T14:53:14.579Z,100813.42
2018-11-04T14:55:43.125Z,100810.07
2018-11-04T14:58:11.628Z,100813.47
2018-11-04T15:00:40.209Z,100817.41
2018-11-04T15:03:08.730Z,100812.38
2018-11-04T15:05:37.251Z,100816.72
2018-11-04T15:08:05.785Z,100817.89
2018-11-04T15:10:34.287Z,100811.02
2018-11-04T15:13:02.851Z,100810.08
2018-11-04T15:15:31.447Z,100805.93
2018-11-04T15:17:59.981Z,100800.38
2018-11-04T15:20:28.540Z,100801.35
2018-11-04T15:22:57.058Z,100798.26
2018-11-04T15:25:25.701Z,100797.70
2018-11-04T15:27:54.193Z,100797.91
2018-11-04T15:30:22.957Z,100796.53
2018-11-04T15:32:51.570Z,100799.66
2018-11-04T15:35:20.094Z,100803.58
2018-11-04T15:37:48.633Z,100806.11
2018-11-04T15:40:17.618Z,100804.77
2018-11-04T15:42:46.096Z,100807.13
2018-11-04T15:45:15.492Z,100803.03
2018-11-04T15:47:50.453Z,100797.52
2018-11-04T15:50:19.610Z,100801.66
2018-11-04T15:52:48.811Z,100807.19
2018-11-04T15:55:17.382Z,100806.52
2018-11-04T15:57:45.914Z,100800.98
2018-11-04T16:00:15.276Z,100801.04
2018-11-04T16:02:43.881Z,100796.13
2018-11-04T16:05:12.526Z,100801.17
2018-11-04T16:07:41.131Z,100802.77
2018-11-04T16:10:10.423Z,100794.61
2018-11-04T16:12:39.344Z,100797.34
2018-11-04T16:15:09.642Z,100795.53
2018-11-04T16:17:38.124Z,100799.42
2018-11-04T16:20:08.043Z,100793.47
2018-11-04T16:22:36.561Z,100791.51
2018-11-04T16:25:05.496Z,100793.22
2018-11-04T16:27:33.966Z,100794.54
2018-11-04T16:30:02.541Z,100788.31
2018-11-04T16:32:31.046Z,100799.93
2018-11-04T16:34:59.538Z,100794.47
2018-11-04T16:37:28.053Z,100802.83
2018-11-04T16:39:56.527Z,100802.08
2018-11-04T16:42:25.026Z,100810.17
2018-11-04T16:44:53.601Z,100804.89
2018-11-04T16:47:22.159Z,100801.89
2018-11-04T16:49:50.710Z,100809.27
2018-11-04T16:52:19.188Z,100817.64
2018-11-04T16:54:47.685Z,100813.02
2018-11-04T16:57:16.298Z,100814.83
2018-11-04T16:59:44.828Z,100818.06
2018-11-04T17:02:13.399Z,100817.63
2018-11-04T17:04:41.995Z,100818.31
2018-11-04T17:07:10.425Z,100815.19
2018-11-04T17:09:39.185Z,100818.50
2018-11-04T17:12:07.700Z,100816.13
2018-11-04T17:14:36.289Z,100820.56
2018-11-04T17:17:05.019Z,100827.52
2018-11-04T17:19:33.512Z,100821.76
2018-11-04T17:22:02.037Z,100820.34
2018-11-04T17:24:30.558Z,100817.13
2018-11-04T17:26:59.049Z,100814.78
2018-11-04T17:29:27.613Z,100800.66
2018-11-04T17:31:56.130Z,100805.65
2018-11-04T17:34:24.690Z,100812.38
2018-11-04T17:36:53.287Z,100817.54
2018-11-04T17:39:22.371Z,100809.32
2018-11-04T17:41:51.034Z,100806.69
2018-11-04T17:44:19.708Z,100808.12
2018-11-04T17:46:48.164Z,100806.23
2018-11-04T17:49:16.666Z,100799.06
2018-11-04T17:51:45.197Z,100798.58
2018-11-04T17:54:13.766Z,100798.66
2018-11-04T17:56:42.311Z,100785.99
2018-11-04T17:59:10.817Z,100791.27
2018-11-04T18:01:39.318Z,100793.98
2018-11-04T18:04:07.795Z,100793.48
2018-11-04T18:06:36.360Z,100792.66
2018-11-04T18:09:06.173Z,100790.95
2018-11-04T18:11:34.650Z,100790.69
2018-11-04T18:14:03.265Z,100788.27
2018-11-04T18:16:31.786Z,100787.70
2018-11-04T18:19:00.329Z,100788.05
2018-11-04T18:21:28.833Z,100783.61
2018-11-04T18:23:57.399Z,100778.05
2018-11-04T18:26:26.065Z,100773.28
2018-11-04T18:28:54.516Z,100772.78
2018-11-04T18:31:23.538Z,100772.20
2018-11-04T18:33:52.038Z,100776.70
2018-11-04T18:36:20.588Z,100778.31
2018-11-04T18:38:49.149Z,100781.28
2018-11-04T18:41:17.674Z,100772.69
2018-11-04T18:43:46.689Z,100777.84
2018-11-04T18:46:15.185Z,100776.16
2018-11-04T18:48:43.717Z,100774.55
2018-11-04T18:51:12.472Z,100775.68
2018-11-04T18:53:41.020Z,100775.03
2018-11-04T18:56:09.557Z,100768.91
2018-11-04T18:58:38.077Z,100766.59
2018-11-04T19:01:07.133Z,100761.92
2018-11-04T19:03:35.663Z,100763.27
2018-11-04T19:06:04.178Z,100764.84
2018-11-04T19:08:32.678Z,100763.19
2018-11-04T19:11:01.176Z,100763.01
2018-11-04T19:13:29.638Z,100767.19
2018-11-04T19:15:58.181Z,100771.63
2018-11-04T19:18:26.725Z,100772.87
2018-11-04T19:20:55.213Z,100768.73
2018-11-04T19:23:23.952Z,100760.64
2018-11-04T19:25:52.497Z,100763.74
2018-11-04T19:28:20.986Z,100768.61
2018-11-04T19:30:49.616Z,100765.25
2018-11-04T19:33:18.119Z,100756.20
2018-11-04T19:35:46.588Z,100752.17
2018-11-04T19:38:15.184Z,100737.12
2018-11-04T19:40:43.650Z,100739.72
2018-11-04T19:43:12.175Z,100746.45
2018-11-04T19:45:40.628Z,100741.61
2018-11-04T19:48:09.267Z,100729.81
2018-11-04T19:50:37.726Z,100740.01
2018-11-04T19:53:06.205Z,100745.52
2018-11-04T19:55:34.720Z,100746.30
2018-11-04T19:58:03.211Z,100751.94
2018-11-04T20:00:31.818Z,100747.60
2018-11-04T20:03:00.328Z,100749.95
2018-11-04T20:05:28.905Z,100742.12
2018-11-04T20:07:57.475Z,100738.45
2018-11-04T20:10:25.956Z,100742.39
2018-11-04T20:12:59.815Z,100738.75
2018-11-04T20:15:28.326Z,100742.62
2018-11-04T20:17:56.921Z,100750.53
2018-11-04T20:20:27.221Z,100738.34
2018-11-04T20:22:55.707Z,100736.34
2018-11-04T20:25:29.420Z,100725.47
2018-11-04T20:27:57.948Z,100712.42
2018-11-04T20:30:26.426Z,100709.50
2018-11-04T20:32:59.976Z,100710.05
2018-11-04T20:35:28.477Z,100719.00
2018-11-04T20:37:56.989Z,100721.66
2018-11-04T20:40:30.688Z,100723.29
2018-11-04T20:42:59.306Z,100716.61
2018-11-04T20:45:27.889Z,100716.61
2018-11-04T20:48:01.670Z,100720.75
2018-11-04T20:50:35.513Z,100715.83
2018-11-04T20:53:04.123Z,100717.12
2018-11-04T20:55:37.810Z,100716.19
2018-11-04T20:58:06.423Z,100708.30
2018-11-04T21:00:34.822Z,100706.83
2018-11-04T21:03:03.431Z,100706.16
2018-11-04T21:05:31.908Z,100702.39
2018-11-04T21:08:00.483Z,100692.84
2018-11-04T21:10:29.093Z,100697.13
2018-11-04T21:12:57.666Z,100706.83
2018-11-04T21:15:26.157Z,100710.92
2018-11-04T21:17:54.710Z,100709.77
2018-11-04T21:20:23.278Z,100696.47
2018-11-04T21:22:51.761Z,100688.73
2018-11-04T21:25:20.348Z,100694.14
2018-11-04T21:27:48.905Z,100694.94
2018-11-04T21:30:17.305Z,100698.05
2018-11-04T21:32:45.789Z,100684.84
2018-11-04T21:35:14.353Z,100684.18
2018-11-04T21:37:42.899Z,100683.48
2018-11-04T21:40:11.509Z,100679.36
2018-11-04T21:42:40.277Z,100671.34
2018-11-04T21:45:11.304Z,100667.92
2018-11-04T21:47:39.849Z,100672.70
2018-11-04T21:50:09.470Z,100670.03
2018-11-04T21:52:38.091Z,100669.38
2018-11-04T21:55:08.241Z,100668.55
2018-11-04T21:57:36.720Z,100668.70
2018-11-04T22:00:06.981Z,100670.69
2018-11-04T22:02:35.610Z,100672.17
2018-11-04T22:05:04.102Z,100677.39
2018-11-04T22:07:32.584Z,100672.78
2018-11-04T22:10:01.279Z,100671.81
2018-11-04T22:12:29.754Z,100671.83
2018-11-04T22:14:58.426Z,100664.55
2018-11-04T22:17:27.040Z,100664.41
2018-11-04T22:19:55.544Z,100661.56
2018-11-04T22:22:24.143Z,100663.05
2018-11-04T22:24:52.677Z,100662.45
2018-11-04T22:27:21.189Z,100662.79
2018-11-04T22:29:50.203Z,100658.80
2018-11-04T22:32:18.768Z,100648.94
2018-11-04T22:34:47.347Z,100640.73
2018-11-04T22:37:15.861Z,100637.63
2018-11-04T22:39:44.406Z,100631.35
2018-11-04T22:42:12.999Z,100635.97
2018-11-04T22:44:41.526Z,100637.63
2018-11-04T22:47:10.063Z,100642.00
2018-11-04T22:49:38.547Z,100627.39
2018-11-04T22:52:07.078Z,100624.91
2018-11-04T22:54:35.577Z,100621.54
2018-11-04T22:57:04.069Z,100619.63
2018-11-04T22:59:32.555Z,100617.30
2018-11-04T23:02:01.099Z,100617.47
2018-11-04T23:04:34.779Z,100618.39
2018-11-04T23:07:03.318Z,100619.09
2018-11-04T23:09:31.805Z,100615.68
2018-11-04T23:12:00.338Z,100627.23
2018-11-04T23:14:28.846Z,100621.67
2018-11-04T23:16:57.429Z,100621.01
2018-11-04T23:19:26.020Z,100617.02
2018-11-04T23:21:54.521Z,100617.07
2018-11-04T23:24:22.988Z,100614.14
2018-11-04T23:26:51.601Z,100609.15
2018-11-04T23:29:20.058Z,100603.37
2018-11-04T23:31:48.580Z,100611.64
2018-11-04T23:34:17.141Z,100607.36
2018-11-04T23:36:45.677Z,100599.51
2018-11-04T23:39:14.237Z,100588.38
2018-11-04T23:41:42.758Z,100590.66
2018-11-04T23:44:11.257Z,100585.31
2018-11-04T23:46:39.794Z,100583.04
2018-11-04T23:49:08.262Z,100578.66
2018-11-04T23:51:36.827Z,100569.50
2018-11-04T23:54:05.930Z,100560.78
2018-11-04T23:56:34.449Z,100563.02
2018-11-04T23:59:03.021Z,100558.46
